createdAt,value
2023-04-01T00:02:22.591Z,7.30
2023-04-01T00:07:25.990Z,7.30
2023-04-01T00:12:34.263Z,7.10
2023-04-01T00:17:39.072Z,7.10
2023-04-01T00:22:42.650Z,7.20
2023-04-01T00:27:46.384Z,7.20
2023-04-01T00:32:53.885Z,7.30
2023-04-01T00:37:57.806Z,7.30
2023-04-01T00:43:01.622Z,7.30
2023-04-01T00:48:11.103Z,7.30
2023-04-01T00:53:14.730Z,7.30
2023-04-01T00:58:20.818Z,7.30
2023-04-01T01:03:25.605Z,7.20
2023-04-01T01:08:39.125Z,7.00
2023-04-01T01:13:49.101Z,7.10
2023-04-01T01:18:59.005Z,7.00
2023-04-01T01:24:45.278Z,6.90
2023-04-01T01:30:11.678Z,6.90
2023-04-01T01:35:24.823Z,7.00
2023-04-01T01:40:29.937Z,7.10
2023-04-01T01:45:36.514Z,7.10
2023-04-01T01:50:42.174Z,7.00
2023-04-01T01:55:47.740Z,7.10
2023-04-01T02:00:55.697Z,7.00
2023-04-01T02:06:03.033Z,7.00
2023-04-01T02:11:09.961Z,7.00
2023-04-01T02:16:17.349Z,7.00
2023-04-01T02:21:24.381Z,7.00
2023-04-01T02:26:28.638Z,7.00
2023-04-01T02:31:32.893Z,6.80
2023-04-01T02:36:39.244Z,6.80
2023-04-01T02:41:43.732Z,6.80
2023-04-01T02:46:47.098Z,6.80
2023-04-01T02:51:52.958Z,6.80
2023-04-01T02:56:56.595Z,6.60
2023-04-01T03:01:59.943Z,6.50
2023-04-01T03:07:04.629Z,6.50
2023-04-01T03:12:08.229Z,6.30
2023-04-01T03:17:11.521Z,6.20
2023-04-01T03:22:16.256Z,6.10
2023-04-01T03:27:19.595Z,6.00
2023-04-01T03:32:23.174Z,6.00
2023-04-01T03:37:27.887Z,6.10
2023-04-01T03:42:33.364Z,5.90
2023-04-01T03:47:36.849Z,5.80
2023-04-01T03:52:41.734Z,5.70
2023-04-01T03:57:45.113Z,5.70
2023-04-01T04:02:48.777Z,5.60
2023-04-01T04:07:54.664Z,5.70
2023-04-01T04:12:58.332Z,5.80
2023-04-01T04:18:01.572Z,5.70
2023-04-01T04:23:06.313Z,5.70
2023-04-01T04:28:09.707Z,5.60
2023-04-01T04:33:13.183Z,5.60
2023-04-01T04:38:18.271Z,5.60
2023-04-01T04:43:22.048Z,5.60
2023-04-01T04:48:25.480Z,5.70
2023-04-01T04:53:30.453Z,5.60
2023-04-01T04:58:33.706Z,5.60
2023-04-01T05:03:37.019Z,5.70
2023-04-01T05:08:42.132Z,5.90
2023-04-01T05:13:46.169Z,6.00
2023-04-01T05:18:49.921Z,6.20
2023-04-01T05:23:54.576Z,6.30
2023-04-01T05:28:57.761Z,6.40
2023-04-01T05:34:01.261Z,6.50
2023-04-01T05:39:06.088Z,6.50
2023-04-01T05:44:09.396Z,6.80
2023-04-01T05:49:13.751Z,6.90
2023-04-01T05:54:18.539Z,7.00
2023-04-01T05:59:21.697Z,7.10
2023-04-01T06:04:25.513Z,7.20
2023-04-01T06:09:32.239Z,7.30
2023-04-01T06:14:48.191Z,7.50
2023-04-01T06:19:57.930Z,7.70
2023-04-01T06:25:27.720Z,7.70
2023-04-01T06:30:38.048Z,7.80
2023-04-01T06:35:59.555Z,7.90
2023-04-01T06:41:41.389Z,8.00
2023-04-01T06:46:49.606Z,8.00
2023-04-01T06:52:00.427Z,8.00
2023-04-01T06:57:10.975Z,8.20
2023-04-01T07:02:26.604Z,8.20
2023-04-01T07:07:43.054Z,8.30
2023-04-01T07:12:51.335Z,8.40
2023-04-01T07:17:58.607Z,8.40
2023-04-01T07:23:04.792Z,8.50
2023-04-01T07:28:15.143Z,8.60
2023-04-01T07:33:26.637Z,8.60
2023-04-01T07:38:38.493Z,8.60
2023-04-01T07:44:02.503Z,8.80
2023-04-01T07:49:12.218Z,8.70
2023-04-01T07:54:23.304Z,8.80
2023-04-01T07:59:35.156Z,8.80
2023-04-01T08:04:55.478Z,9.00
2023-04-01T08:10:07.491Z,9.00
2023-04-01T08:15:22.495Z,8.90
2023-04-01T08:20:35.004Z,8.90
2023-04-01T08:25:44.478Z,8.80
2023-04-01T08:30:54.886Z,8.80
2023-04-01T08:36:05.966Z,9.00
2023-04-01T08:41:42.092Z,9.10
2023-04-01T08:47:09.963Z,9.00
2023-04-01T08:52:35.588Z,8.70
2023-04-01T08:57:55.525Z,8.60
2023-04-01T09:03:30.574Z,8.70
2023-04-01T09:08:45.421Z,8.80
2023-04-01T09:14:05.965Z,8.90
2023-04-01T09:19:25.235Z,8.80
2023-04-01T09:24:57.800Z,9.10
2023-04-01T09:30:35.563Z,9.60
2023-04-01T09:35:48.988Z,9.70
2023-04-01T09:40:59.958Z,9.80
2023-04-01T09:46:26.098Z,9.60
2023-04-01T09:51:40.365Z,9.50
2023-04-01T09:57:24.507Z,9.50
2023-04-01T10:02:56.992Z,9.90
2023-04-01T10:08:42.156Z,10.30
2023-04-01T10:14:17.273Z,10.10
2023-04-01T10:19:57.785Z,9.50
2023-04-01T10:25:32.833Z,9.20
2023-04-01T10:31:14.969Z,9.10
2023-04-01T10:36:49.018Z,9.00
2023-04-01T10:42:31.851Z,9.20
2023-04-01T10:47:52.275Z,9.50
2023-04-01T10:53:39.074Z,9.70
2023-04-01T10:59:17.771Z,10.00
2023-04-01T11:05:10.038Z,10.20
2023-04-01T11:11:14.651Z,10.20
2023-04-01T11:16:44.858Z,10.10
2023-04-01T11:22:12.169Z,10.30
2023-04-01T11:27:43.510Z,10.40
2023-04-01T11:32:55.249Z,10.20
2023-04-01T11:38:11.204Z,9.90
2023-04-01T11:43:32.797Z,10.00
2023-04-01T11:48:51.938Z,10.20
2023-04-01T11:54:02.795Z,10.40
2023-04-01T11:59:50.675Z,10.40
2023-04-01T12:05:13.989Z,10.80
2023-04-01T12:10:22.030Z,10.80
2023-04-01T12:15:38.074Z,10.60
2023-04-01T12:20:51.163Z,10.50
2023-04-01T12:26:12.640Z,10.50
2023-04-01T12:31:29.915Z,10.30
2023-04-01T12:36:55.230Z,10.30
2023-04-01T12:42:07.681Z,10.20
2023-04-01T12:47:42.040Z,10.20
2023-04-01T12:53:04.110Z,10.30
2023-04-01T12:58:45.836Z,10.70
2023-04-01T13:04:15.647Z,11.10
2023-04-01T13:09:32.934Z,11.10
2023-04-01T13:14:59.062Z,11.10
2023-04-01T13:20:09.310Z,10.80
2023-04-01T13:25:24.338Z,11.30
2023-04-01T13:30:32.998Z,11.60
2023-04-01T13:35:47.864Z,11.70
2023-04-01T13:41:03.078Z,11.70
2023-04-01T13:46:39.369Z,11.40
2023-04-01T13:52:12.556Z,11.30
2023-04-01T13:57:32.310Z,11.10
2023-04-01T14:03:06.542Z,11.30
2023-04-01T14:08:22.772Z,11.20
2023-04-01T14:13:36.531Z,11.20
2023-04-01T14:18:55.490Z,11.20
2023-04-01T14:24:27.315Z,11.00
2023-04-01T14:29:39.270Z,10.80
2023-04-01T14:35:22.416Z,11.00
2023-04-01T14:40:35.220Z,10.90
2023-04-01T14:46:00.290Z,10.60
2023-04-01T14:51:12.855Z,10.70
2023-04-01T14:56:38.034Z,10.80
2023-04-01T15:01:49.840Z,10.50
2023-04-01T15:07:13.743Z,10.60
2023-04-01T15:12:29.240Z,10.70
2023-04-01T15:17:46.016Z,10.80
2023-04-01T15:23:04.054Z,10.70
2023-04-01T15:28:16.989Z,10.60
2023-04-01T15:33:55.240Z,10.50
2023-04-01T15:39:08.239Z,10.20
2023-04-01T15:44:39.464Z,10.20
2023-04-01T15:49:48.032Z,10.30
2023-04-01T15:55:22.373Z,10.10
2023-04-01T16:00:30.110Z,10.10
2023-04-01T16:05:41.651Z,9.90
2023-04-01T16:10:58.339Z,9.90
2023-04-01T16:16:12.085Z,9.80
2023-04-01T16:21:29.741Z,9.90
2023-04-01T16:26:40.477Z,9.80
2023-04-01T16:31:54.306Z,9.90
2023-04-01T16:37:06.104Z,9.80
2023-04-01T16:42:37.943Z,9.90
2023-04-01T16:47:48.942Z,9.80
2023-04-01T16:53:03.748Z,9.80
2023-04-01T16:58:09.770Z,9.90
2023-04-01T17:03:21.467Z,9.80
2023-04-01T17:08:39.757Z,9.70
2023-04-01T17:13:51.418Z,9.70
2023-04-01T17:19:06.844Z,9.60
2023-04-01T17:24:27.811Z,9.50
2023-04-01T17:29:40.218Z,9.40
2023-04-01T17:35:00.904Z,9.30
2023-04-01T17:40:23.130Z,9.30
2023-04-01T17:45:32.782Z,9.20
2023-04-01T17:50:55.285Z,9.20
2023-04-01T17:56:11.325Z,9.20
2023-04-01T18:01:37.462Z,9.10
2023-04-01T18:06:58.974Z,9.00
2023-04-01T18:12:11.385Z,8.90
2023-04-01T18:17:25.642Z,8.90
2023-04-01T18:22:38.542Z,8.90
2023-04-01T18:27:46.000Z,9.00
2023-04-01T18:32:53.749Z,8.90
2023-04-01T18:38:06.044Z,8.90
2023-04-01T18:43:21.710Z,8.80
2023-04-01T18:48:44.849Z,8.70
2023-04-01T18:53:59.412Z,8.60
2023-04-01T18:59:10.461Z,8.40
2023-04-01T19:04:22.982Z,8.20
2023-04-01T19:09:30.164Z,8.00
2023-04-01T19:14:50.958Z,7.80
2023-04-01T19:19:58.058Z,7.60
2023-04-01T19:25:35.353Z,7.40
2023-04-01T19:30:48.018Z,7.10
2023-04-01T19:35:59.010Z,6.80
2023-04-01T19:41:17.935Z,6.60
2023-04-01T19:46:30.822Z,6.30
2023-04-01T19:51:39.869Z,6.00
2023-04-01T19:56:50.148Z,5.90
2023-04-01T20:02:01.486Z,5.90
2023-04-01T20:07:11.705Z,6.00
2023-04-01T20:12:27.505Z,6.20
2023-04-01T20:17:35.206Z,6.00
2023-04-01T20:23:33.834Z,6.00
2023-04-01T20:28:51.469Z,6.00
2023-04-01T20:34:25.608Z,6.20
2023-04-01T20:39:56.772Z,6.30
2023-04-01T20:45:19.329Z,6.20
2023-04-01T20:50:27.693Z,6.10
2023-04-01T20:56:10.769Z,6.00
2023-04-01T21:01:28.788Z,5.90
2023-04-01T21:06:50.076Z,5.70
2023-04-01T21:12:00.940Z,5.80
2023-04-01T21:17:15.342Z,6.00
2023-04-01T21:22:43.206Z,6.30
2023-04-01T21:28:01.352Z,6.50
2023-04-01T21:33:28.992Z,6.60
2023-04-01T21:38:45.312Z,6.60
2023-04-01T21:44:25.756Z,6.70
2023-04-01T21:49:48.809Z,6.80
2023-04-01T21:55:28.192Z,6.80
2023-04-01T22:00:34.799Z,6.70
2023-04-01T22:05:43.129Z,6.70
2023-04-01T22:11:00.072Z,6.80
2023-04-01T22:16:13.426Z,6.80
2023-04-01T22:21:25.556Z,6.80
2023-04-01T22:26:40.527Z,6.70
2023-04-01T22:31:51.884Z,6.70
2023-04-01T22:37:03.741Z,6.60
2023-04-01T22:42:21.858Z,6.50
2023-04-01T22:47:32.919Z,6.50
2023-04-01T22:52:43.265Z,6.40
2023-04-01T22:57:52.647Z,6.20
2023-04-01T23:03:11.374Z,6.20
2023-04-01T23:08:47.173Z,6.10
2023-04-01T23:13:56.184Z,5.90
2023-04-01T23:19:05.548Z,5.90
2023-04-01T23:24:19.233Z,5.90
2023-04-01T23:29:24.298Z,5.90
2023-04-01T23:34:32.289Z,6.00
2023-04-01T23:39:39.282Z,5.90
2023-04-01T23:44:44.879Z,5.90
2023-04-01T23:49:51.999Z,5.80
2023-04-01T23:55:00.921Z,5.70
